createdAt,value
2022-10-23T00:01:28.597Z,40.40
2022-10-23T00:03:58.893Z,39.67
2022-10-23T00:06:28.022Z,45.22
2022-10-23T00:08:56.756Z,42.17
2022-10-23T00:11:30.891Z,44.45
2022-10-23T00:14:02.188Z,42.72
2022-10-23T00:16:32.295Z,52.40
2022-10-23T00:19:00.342Z,49.78
2022-10-23T00:21:28.666Z,46.38
2022-10-23T00:23:56.795Z,50.42
2022-10-23T00:26:24.947Z,56.75
2022-10-23T00:28:54.774Z,51.13
2022-10-23T00:31:24.249Z,57.70
2022-10-23T00:33:54.265Z,56.55
2022-10-23T00:36:23.076Z,54.75
2022-10-23T00:38:51.947Z,48.88
2022-10-23T00:41:21.931Z,49.80
2022-10-23T00:43:59.623Z,50.88
2022-10-23T00:46:28.071Z,57.75
2022-10-23T00:48:58.149Z,56.40
2022-10-23T00:51:28.734Z,62.97
2022-10-23T00:54:22.861Z,54.60
2022-10-23T00:56:49.213Z,59.70
2022-10-23T00:59:17.206Z,62.17
2022-10-23T01:01:45.585Z,60.58
2022-10-23T01:04:15.230Z,62.60
2022-10-23T01:06:51.654Z,55.88
2022-10-23T01:09:25.492Z,53.83
2022-10-23T01:12:00.758Z,42.65
2022-10-23T01:14:34.044Z,50.00
2022-10-23T01:17:07.370Z,48.50
2022-10-23T01:19:49.657Z,48.60
2022-10-23T01:22:38.199Z,50.15
2022-10-23T01:25:21.887Z,47.25
2022-10-23T01:27:57.372Z,45.10
2022-10-23T01:30:25.456Z,48.30
2022-10-23T01:32:57.686Z,51.85
2022-10-23T01:35:30.364Z,50.28
2022-10-23T01:40:34.948Z,43.53
2022-10-23T01:43:09.549Z,50.65
2022-10-23T01:45:41.786Z,50.08
2022-10-23T01:48:14.712Z,47.53
2022-10-23T01:50:44.168Z,45.88
2022-10-23T01:53:12.229Z,48.17
2022-10-23T01:55:43.047Z,41.35
2022-10-23T01:58:13.616Z,41.35
2022-10-23T02:00:45.376Z,39.50
2022-10-23T02:03:17.041Z,33.17
2022-10-23T02:05:45.787Z,42.00
2022-10-23T02:08:14.176Z,46.45
2022-10-23T02:10:50.588Z,39.72
2022-10-23T02:13:26.950Z,39.88
2022-10-23T02:16:04.760Z,47.33
2022-10-23T02:18:39.204Z,51.60
2022-10-23T02:21:11.408Z,55.00
2022-10-23T02:23:50.419Z,55.42
2022-10-23T02:26:24.114Z,61.17
2022-10-23T02:28:57.003Z,56.67
2022-10-23T02:31:25.544Z,65.25
2022-10-23T02:33:53.526Z,59.55
2022-10-23T02:36:21.741Z,54.10
2022-10-23T02:38:49.725Z,49.95
2022-10-23T02:41:30.423Z,57.75
2022-10-23T02:44:17.684Z,60.28
2022-10-23T02:46:54.814Z,57.20
2022-10-23T02:49:28.754Z,53.83
2022-10-23T02:52:07.221Z,53.42
2022-10-23T02:54:48.670Z,47.70
2022-10-23T02:57:24.696Z,54.13
2022-10-23T03:00:03.855Z,46.03
2022-10-23T03:02:37.795Z,44.22
2022-10-23T03:05:09.885Z,36.25
2022-10-23T03:07:40.090Z,39.53
2022-10-23T03:10:10.314Z,39.08
2022-10-23T03:12:38.741Z,37.28
2022-10-23T03:15:09.640Z,40.88
2022-10-23T03:17:38.215Z,47.60
2022-10-23T03:20:06.929Z,48.45
2022-10-23T03:22:34.989Z,51.40
2022-10-23T03:25:03.145Z,48.33
2022-10-23T03:27:31.160Z,60.30
2022-10-23T03:29:59.121Z,50.65
2022-10-23T03:32:28.483Z,55.83
2022-10-23T03:34:56.453Z,55.13
2022-10-23T03:37:24.471Z,55.95
2022-10-23T03:39:52.526Z,49.60
2022-10-23T03:42:20.534Z,52.35
2022-10-23T03:44:48.495Z,58.95
2022-10-23T03:47:16.540Z,66.82
2022-10-23T03:49:45.920Z,82.25
2022-10-23T03:52:13.961Z,69.82
2022-10-23T03:54:42.012Z,65.20
2022-10-23T03:57:09.983Z,55.58
2022-10-23T03:59:38.242Z,58.40
2022-10-23T04:02:06.274Z,51.88
2022-10-23T04:04:34.546Z,44.05
2022-10-23T04:07:03.922Z,43.20
2022-10-23T04:09:31.921Z,38.80
2022-10-23T04:11:59.902Z,40.13
2022-10-23T04:14:28.320Z,42.85
2022-10-23T04:16:56.301Z,41.28
2022-10-23T04:19:26.678Z,43.13
2022-10-23T04:21:54.723Z,45.97
2022-10-23T04:24:27.055Z,42.35
2022-10-23T04:26:55.111Z,43.95
2022-10-23T04:29:24.722Z,43.28
2022-10-23T04:31:52.806Z,49.90
2022-10-23T04:34:20.835Z,44.88
2022-10-23T04:36:48.811Z,45.58
2022-10-23T04:39:16.838Z,44.15
2022-10-23T04:41:46.274Z,40.92
2022-10-23T04:44:14.407Z,50.50
2022-10-23T04:46:42.459Z,42.38
2022-10-23T04:49:10.462Z,43.00
2022-10-23T04:51:38.671Z,45.75
2022-10-23T04:54:06.773Z,39.30
2022-10-23T04:56:34.716Z,42.53
2022-10-23T05:01:33.627Z,42.65
2022-10-23T05:04:01.686Z,39.30
2022-10-23T05:06:29.669Z,45.72
2022-10-23T05:08:57.709Z,45.92
2022-10-23T05:11:25.748Z,57.75
2022-10-23T05:13:53.704Z,57.53
2022-10-23T05:16:33.621Z,56.20
2022-10-23T05:19:02.252Z,63.00
2022-10-23T05:21:33.170Z,70.53
2022-10-23T05:24:02.275Z,66.78
2022-10-23T05:26:30.903Z,65.55
2022-10-23T05:28:58.885Z,61.60
2022-10-23T05:31:28.464Z,61.80
2022-10-23T05:33:57.490Z,48.53
2022-10-23T05:36:26.339Z,64.95
2022-10-23T05:38:55.218Z,56.10
2022-10-23T05:41:23.337Z,54.17
2022-10-23T05:43:51.306Z,49.65
2022-10-23T05:46:19.420Z,58.80
2022-10-23T05:48:51.308Z,58.42
2022-10-23T05:51:22.584Z,71.63
2022-10-23T05:53:50.729Z,75.28
2022-10-23T05:56:19.557Z,67.85
2022-10-23T05:58:47.667Z,67.22
2022-10-23T06:01:18.201Z,64.22
2022-10-23T06:03:46.281Z,55.90
2022-10-23T06:06:15.672Z,56.33
2022-10-23T06:08:43.888Z,68.40
2022-10-23T06:11:13.195Z,66.82
2022-10-23T06:13:43.907Z,57.25
2022-10-23T06:16:12.311Z,54.72
2022-10-23T06:18:40.446Z,50.13
2022-10-23T06:21:09.011Z,50.45
2022-10-23T06:23:39.622Z,53.00
2022-10-23T06:26:09.348Z,51.10
2022-10-23T06:28:37.851Z,54.38
2022-10-23T06:31:06.983Z,51.65
2022-10-23T06:33:35.196Z,54.17
2022-10-23T06:36:03.777Z,51.40
2022-10-23T06:38:36.748Z,47.05
2022-10-23T06:41:07.120Z,45.08
2022-10-23T06:43:35.212Z,43.65
2022-10-23T06:46:04.319Z,35.28
2022-10-23T06:48:32.713Z,40.95
2022-10-23T06:51:05.020Z,40.45
2022-10-23T06:53:33.239Z,41.90
2022-10-23T06:56:01.679Z,39.95
2022-10-23T06:58:31.352Z,41.50
2022-10-23T07:01:01.885Z,47.25
2022-10-23T07:03:30.219Z,38.40
2022-10-23T07:06:01.638Z,34.45
2022-10-23T07:08:29.735Z,34.05
2022-10-23T07:10:58.024Z,38.95
2022-10-23T07:13:26.203Z,41.00
2022-10-23T07:15:55.564Z,36.83
2022-10-23T07:18:23.845Z,33.08
2022-10-23T07:20:58.985Z,37.55
2022-10-23T07:23:27.039Z,36.55
2022-10-23T07:25:55.001Z,36.15
2022-10-23T07:28:22.975Z,34.30
2022-10-23T07:30:59.121Z,35.35
2022-10-23T07:33:27.143Z,29.85
2022-10-23T07:35:55.152Z,28.58
2022-10-23T07:38:23.137Z,26.80
2022-10-23T07:40:51.163Z,21.63
2022-10-23T07:43:20.959Z,22.42
2022-10-23T07:45:49.854Z,23.70
2022-10-23T07:48:19.626Z,22.52
2022-10-23T07:50:47.641Z,23.00
2022-10-23T07:53:19.075Z,20.95
2022-10-23T07:55:54.142Z,22.25
2022-10-23T07:58:22.370Z,21.13
2022-10-23T08:00:56.253Z,16.73
2022-10-23T08:03:26.204Z,19.40
2022-10-23T08:05:54.868Z,15.48
2022-10-23T08:08:23.250Z,16.60
2022-10-23T08:10:52.473Z,16.60
2022-10-23T08:13:21.261Z,16.13
2022-10-23T08:15:50.967Z,19.35
2022-10-23T08:18:22.097Z,18.35
2022-10-23T08:20:55.430Z,14.52
2022-10-23T08:23:23.407Z,13.75
2022-10-23T08:25:51.355Z,17.67
2022-10-23T08:28:22.432Z,14.95
2022-10-23T08:30:50.393Z,13.80
2022-10-23T08:33:18.409Z,19.92
2022-10-23T08:35:46.400Z,19.48
2022-10-23T08:38:15.931Z,16.13
2022-10-23T08:40:46.578Z,18.25
2022-10-23T08:43:21.808Z,15.27
2022-10-23T08:45:54.084Z,15.25
2022-10-23T08:48:29.776Z,15.43
2022-10-23T08:51:01.116Z,14.23
2022-10-23T08:53:34.602Z,16.30
2022-10-23T08:56:05.646Z,15.23
2022-10-23T08:58:40.646Z,15.15
2022-10-23T09:01:31.211Z,14.27
2022-10-23T09:03:59.358Z,19.10
2022-10-23T09:06:38.111Z,16.90
2022-10-23T09:09:30.779Z,19.95
2022-10-23T09:12:04.309Z,16.73
2022-10-23T09:15:00.435Z,18.25
2022-10-23T09:17:30.857Z,17.27
2022-10-23T09:20:12.011Z,19.33
2022-10-23T09:22:40.761Z,20.65
2022-10-23T09:25:13.383Z,18.98
2022-10-23T09:30:33.764Z,16.33
2022-10-23T09:33:13.625Z,20.73
2022-10-23T09:35:54.730Z,16.90
2022-10-23T09:38:31.565Z,18.42
2022-10-23T09:41:03.928Z,15.50
2022-10-23T09:43:50.077Z,18.75
2022-10-23T09:46:18.062Z,14.93
2022-10-23T09:48:46.117Z,15.25
2022-10-23T09:51:20.502Z,20.60
2022-10-23T09:53:52.650Z,15.35
2022-10-23T09:56:30.807Z,15.27
2022-10-23T09:59:01.145Z,16.13
2022-10-23T10:01:32.855Z,13.55
2022-10-23T10:04:01.003Z,13.70
2022-10-23T10:06:31.066Z,12.73
2022-10-23T10:09:02.093Z,12.70
2022-10-23T10:11:41.211Z,11.38
2022-10-23T10:14:41.032Z,11.98
2022-10-23T10:17:20.159Z,9.70
2022-10-23T10:20:06.961Z,10.95
2022-10-23T10:22:41.311Z,12.18
2022-10-23T10:25:16.455Z,10.57
2022-10-23T10:28:00.312Z,11.25
2022-10-23T10:30:38.342Z,12.45
2022-10-23T10:33:17.298Z,14.18
2022-10-23T10:35:53.920Z,13.63
2022-10-23T10:38:39.359Z,11.23
2022-10-23T10:41:31.182Z,12.30
2022-10-23T10:44:16.596Z,17.15
2022-10-23T10:46:50.789Z,17.00
2022-10-23T10:49:23.985Z,25.42
2022-10-23T10:52:03.004Z,21.40
2022-10-23T10:54:44.745Z,39.38
2022-10-23T10:57:21.903Z,38.90
2022-10-23T10:59:54.563Z,49.58
2022-10-23T11:02:28.998Z,49.88
2022-10-23T11:05:07.330Z,52.10
2022-10-23T11:07:40.266Z,47.47
2022-10-23T11:10:17.678Z,48.53
2022-10-23T11:12:47.239Z,48.28
2022-10-23T11:15:20.022Z,49.47
2022-10-23T11:17:52.105Z,44.58
2022-10-23T11:20:42.715Z,47.42
2022-10-23T11:23:49.630Z,43.70
2022-10-23T11:26:31.451Z,46.70
2022-10-23T11:29:25.551Z,42.60
2022-10-23T11:32:15.770Z,36.55
2022-10-23T11:35:12.138Z,35.05
2022-10-23T11:37:40.272Z,33.13
2022-10-23T11:40:23.643Z,35.80
2022-10-23T11:42:52.740Z,26.02
2022-10-23T11:45:35.302Z,26.17
2022-10-23T11:48:06.458Z,19.25
2022-10-23T11:50:50.736Z,21.58
2022-10-23T11:53:27.982Z,17.60
2022-10-23T11:56:02.215Z,18.27
2022-10-23T11:58:42.354Z,14.70
2022-10-23T12:01:26.102Z,14.60
2022-10-23T12:03:59.780Z,15.65
2022-10-23T12:06:31.198Z,17.85
2022-10-23T12:09:03.090Z,14.82
2022-10-23T12:11:48.029Z,16.73
2022-10-23T12:14:30.199Z,15.52
2022-10-23T12:16:58.642Z,15.68
2022-10-23T12:19:29.858Z,15.38
2022-10-23T12:22:02.111Z,25.85
2022-10-23T12:24:58.867Z,19.50
2022-10-23T12:27:33.503Z,24.85
2022-10-23T12:30:15.526Z,22.63
2022-10-23T12:33:20.464Z,27.77
2022-10-23T12:36:12.674Z,23.45
2022-10-23T12:38:46.158Z,19.15
2022-10-23T12:41:17.279Z,22.15
2022-10-23T12:43:51.667Z,18.92
2022-10-23T12:46:34.733Z,15.45
2022-10-23T12:49:05.084Z,18.00
2022-10-23T12:51:36.197Z,13.00
2022-10-23T12:54:05.437Z,12.40
2022-10-23T12:56:37.280Z,14.18
2022-10-23T12:59:13.029Z,13.35
2022-10-23T13:01:43.340Z,18.02
2022-10-23T13:06:54.142Z,14.57
2022-10-23T13:09:26.180Z,17.42
2022-10-23T13:11:55.876Z,13.73
2022-10-23T13:14:33.104Z,14.50
2022-10-23T13:17:02.743Z,13.50
2022-10-23T13:19:31.213Z,13.73
2022-10-23T13:22:01.482Z,13.77
2022-10-23T13:24:31.644Z,18.42
2022-10-23T13:27:00.705Z,12.57
2022-10-23T13:29:32.133Z,17.40
2022-10-23T13:32:11.805Z,13.13
2022-10-23T13:34:40.021Z,14.20
2022-10-23T13:37:26.087Z,15.18
2022-10-23T13:40:04.854Z,12.55
2022-10-23T13:42:33.229Z,14.68
2022-10-23T13:45:01.259Z,14.15
2022-10-23T13:47:29.365Z,13.57
2022-10-23T13:49:57.665Z,11.77
2022-10-23T13:52:27.143Z,14.20
2022-10-23T13:54:55.391Z,11.98
2022-10-23T13:57:23.535Z,15.70
2022-10-23T13:59:51.770Z,17.17
2022-10-23T14:02:22.831Z,17.70
2022-10-23T14:04:52.326Z,16.00
2022-10-23T14:07:20.323Z,16.23
2022-10-23T14:09:50.624Z,19.33
2022-10-23T14:12:19.272Z,19.25
2022-10-23T14:14:52.545Z,16.10
2022-10-23T14:17:21.089Z,15.13
2022-10-23T14:19:50.566Z,16.90
2022-10-23T14:22:19.436Z,15.35
2022-10-23T14:24:47.700Z,16.58
2022-10-23T14:27:17.173Z,17.10
2022-10-23T14:29:45.154Z,19.48
2022-10-23T14:32:13.165Z,17.75
2022-10-23T14:34:43.839Z,17.75
2022-10-23T14:37:12.144Z,19.70
2022-10-23T14:39:40.184Z,18.02
2022-10-23T14:42:08.481Z,18.60
2022-10-23T14:47:11.115Z,16.90
2022-10-23T14:49:40.347Z,16.90
2022-10-23T14:52:08.795Z,18.00
2022-10-23T14:54:37.190Z,20.00
2022-10-23T14:57:05.557Z,17.83
2022-10-23T14:59:33.564Z,18.98
2022-10-23T15:02:03.384Z,23.25
2022-10-23T15:04:31.433Z,21.52
2022-10-23T15:06:59.416Z,19.58
2022-10-23T15:09:27.743Z,12.65
2022-10-23T15:11:55.783Z,16.83
2022-10-23T15:14:24.001Z,15.35
2022-10-23T15:16:52.072Z,20.25
2022-10-23T15:19:21.591Z,17.10
2022-10-23T15:21:49.844Z,17.17
2022-10-23T15:24:18.424Z,16.27
2022-10-23T15:26:46.479Z,16.90
2022-10-23T15:29:15.300Z,16.98
2022-10-23T15:31:49.822Z,15.68
2022-10-23T15:34:21.079Z,17.40
2022-10-23T15:36:50.736Z,15.43
2022-10-23T15:39:21.563Z,17.15
2022-10-23T15:41:52.136Z,15.00
2022-10-23T15:44:22.140Z,17.67
2022-10-23T15:46:51.683Z,16.92
2022-10-23T15:49:20.730Z,14.43
2022-10-23T15:51:50.476Z,17.45
2022-10-23T15:54:20.724Z,15.60
2022-10-23T15:56:50.837Z,14.65
2022-10-23T15:59:21.085Z,16.27
2022-10-23T16:01:50.015Z,14.88
2022-10-23T16:04:19.416Z,16.25
2022-10-23T16:06:47.552Z,17.95
2022-10-23T16:09:17.759Z,16.48
2022-10-23T16:11:46.269Z,17.17
2022-10-23T16:14:16.007Z,16.50
2022-10-23T16:16:44.616Z,16.85
2022-10-23T16:19:13.268Z,17.35
2022-10-23T16:21:42.479Z,16.67
2022-10-23T16:24:15.285Z,16.83
2022-10-23T16:26:50.338Z,17.63
2022-10-23T16:29:18.595Z,18.17
2022-10-23T16:31:46.670Z,17.60
2022-10-23T16:34:14.728Z,15.73
2022-10-23T16:36:44.420Z,18.40
2022-10-23T16:39:14.698Z,13.30
2022-10-23T16:41:44.335Z,8.63
2022-10-23T16:44:12.520Z,12.77
2022-10-23T16:46:43.889Z,9.95
2022-10-23T16:49:14.254Z,8.17
2022-10-23T16:51:42.798Z,7.30
2022-10-23T16:54:14.269Z,5.25
2022-10-23T16:57:02.391Z,8.68
2022-10-23T16:59:30.740Z,7.47
2022-10-23T17:01:59.298Z,6.68
2022-10-23T17:04:27.871Z,8.38
2022-10-23T17:06:56.366Z,6.07
2022-10-23T17:09:26.989Z,9.82
2022-10-23T17:11:56.528Z,6.72
2022-10-23T17:14:29.707Z,7.95
2022-10-23T17:17:01.197Z,7.15
2022-10-23T17:19:47.082Z,8.05
2022-10-23T17:22:18.105Z,10.98
2022-10-23T17:24:48.977Z,7.88
2022-10-23T17:27:20.650Z,6.95
2022-10-23T17:29:50.936Z,11.48
2022-10-23T17:32:19.435Z,8.98
2022-10-23T17:34:48.163Z,9.02
2022-10-23T17:37:17.731Z,10.80
2022-10-23T17:39:45.971Z,8.18
2022-10-23T17:42:14.984Z,9.15
2022-10-23T17:44:43.619Z,7.82
2022-10-23T17:47:13.602Z,10.32
2022-10-23T17:49:44.192Z,9.48
2022-10-23T17:54:44.110Z,9.02
2022-10-23T17:57:12.526Z,8.93
2022-10-23T17:59:41.018Z,10.27
2022-10-23T18:02:09.613Z,10.82
2022-10-23T18:04:39.736Z,9.27
2022-10-23T18:07:08.337Z,11.38
2022-10-23T18:09:36.864Z,10.70
2022-10-23T18:12:05.726Z,8.02
2022-10-23T18:14:37.403Z,8.23
2022-10-23T18:17:06.305Z,10.60
2022-10-23T18:19:34.883Z,11.45
2022-10-23T18:22:05.261Z,10.63
2022-10-23T18:24:34.426Z,10.68
2022-10-23T18:27:02.924Z,10.00
2022-10-23T18:29:31.488Z,12.52
2022-10-23T18:32:00.097Z,11.88
2022-10-23T18:34:28.625Z,8.55
2022-10-23T18:36:57.633Z,8.93
2022-10-23T18:39:27.638Z,10.48
2022-10-23T18:41:57.955Z,12.68
2022-10-23T18:44:29.574Z,12.43
2022-10-23T18:46:59.367Z,13.33
2022-10-23T18:49:28.326Z,10.25
2022-10-23T18:52:01.199Z,10.30
2022-10-23T18:54:31.582Z,9.63
2022-10-23T18:57:00.164Z,11.18
2022-10-23T18:59:28.690Z,10.60
2022-10-23T19:01:57.346Z,10.43
2022-10-23T19:04:26.089Z,9.90
2022-10-23T19:06:54.703Z,12.23
2022-10-23T19:09:23.449Z,11.82
2022-10-23T19:12:05.686Z,11.57
2022-10-23T19:14:34.407Z,10.75
2022-10-23T19:17:07.437Z,11.82
2022-10-23T19:19:43.096Z,13.55
2022-10-23T19:22:13.412Z,14.05
2022-10-23T19:24:45.412Z,10.23
2022-10-23T19:27:15.655Z,12.10
2022-10-23T19:29:46.728Z,11.32
2022-10-23T19:32:15.464Z,15.25
2022-10-23T19:34:44.537Z,13.18
2022-10-23T19:39:42.600Z,16.60
2022-10-23T19:42:16.032Z,14.88
2022-10-23T19:44:45.919Z,17.02
2022-10-23T19:47:14.496Z,15.00
2022-10-23T19:49:43.034Z,16.08
2022-10-23T19:52:11.539Z,16.45
2022-10-23T19:54:41.628Z,15.90
2022-10-23T19:57:10.678Z,18.70
2022-10-23T19:59:39.653Z,15.45
2022-10-23T20:02:09.683Z,14.60
2022-10-23T20:04:38.291Z,16.67
2022-10-23T20:07:06.987Z,18.88
2022-10-23T20:09:35.293Z,18.77
2022-10-23T20:12:04.293Z,25.13
2022-10-23T20:14:33.005Z,18.98
2022-10-23T20:17:02.117Z,28.20
2022-10-23T20:19:31.724Z,20.40
2022-10-23T20:22:00.648Z,22.15
2022-10-23T20:24:29.269Z,17.35
2022-10-23T20:26:58.525Z,20.80
2022-10-23T20:29:26.640Z,22.45
2022-10-23T20:31:56.248Z,18.95
2022-10-23T20:34:24.852Z,22.20
2022-10-23T20:36:55.039Z,18.52
2022-10-23T20:39:25.687Z,19.52
2022-10-23T20:41:55.807Z,19.10
2022-10-23T20:44:25.213Z,23.98
2022-10-23T20:46:54.293Z,22.92
2022-10-23T20:49:22.719Z,21.77
2022-10-23T20:51:56.572Z,19.80
2022-10-23T20:54:25.196Z,19.05
2022-10-23T20:56:53.349Z,19.85
2022-10-23T20:59:21.827Z,21.13
2022-10-23T21:01:53.307Z,20.20
2022-10-23T21:04:24.027Z,20.07
2022-10-23T21:07:08.766Z,17.48
2022-10-23T21:09:38.965Z,17.58
2022-10-23T21:12:07.631Z,18.35
2022-10-23T21:14:36.359Z,19.27
2022-10-23T21:17:04.372Z,14.10
2022-10-23T21:19:32.525Z,18.85
2022-10-23T21:22:00.546Z,16.88
2022-10-23T21:24:28.541Z,24.13
2022-10-23T21:26:57.943Z,15.60
2022-10-23T21:29:26.036Z,14.35
2022-10-23T21:31:55.398Z,14.95
2022-10-23T21:34:24.139Z,14.77
2022-10-23T21:39:40.824Z,15.27
2022-10-23T21:42:10.303Z,15.48
2022-10-23T21:44:38.436Z,18.40
2022-10-23T21:47:06.672Z,18.13
2022-10-23T21:49:34.731Z,17.33
2022-10-23T21:52:02.738Z,16.20
2022-10-23T21:54:30.844Z,18.13
2022-10-23T21:56:58.883Z,19.10
2022-10-23T21:59:31.575Z,17.05
2022-10-23T22:02:01.178Z,16.25
2022-10-23T22:04:29.362Z,16.48
2022-10-23T22:06:57.346Z,20.60
2022-10-23T22:09:25.552Z,20.67
2022-10-23T22:11:54.610Z,16.05
2022-10-23T22:14:23.957Z,13.57
2022-10-23T22:16:53.965Z,16.85
2022-10-23T22:19:23.596Z,14.75
2022-10-23T22:21:52.353Z,14.98
2022-10-23T22:24:20.672Z,20.13
2022-10-23T22:26:50.739Z,18.30
2022-10-23T22:29:22.982Z,16.20
2022-10-23T22:31:52.004Z,18.23
2022-10-23T22:34:47.883Z,13.35
2022-10-23T22:37:12.438Z,14.30
2022-10-23T22:39:41.020Z,14.25
2022-10-23T22:42:09.033Z,15.20
2022-10-23T22:44:37.058Z,17.33
2022-10-23T22:47:05.302Z,14.98
2022-10-23T22:49:34.785Z,18.00
2022-10-23T22:52:02.961Z,16.88
2022-10-23T22:54:31.642Z,24.83
2022-10-23T22:56:59.900Z,19.30
2022-10-23T22:59:28.212Z,18.80
2022-10-23T23:01:56.333Z,16.20
2022-10-23T23:04:39.833Z,19.00
2022-10-23T23:07:10.851Z,20.27
2022-10-23T23:09:40.093Z,19.45
2022-10-23T23:12:09.872Z,19.73
2022-10-23T23:14:38.508Z,17.75
2022-10-23T23:17:07.415Z,20.52
2022-10-23T23:19:35.475Z,18.25
2022-10-23T23:22:03.493Z,19.48
2022-10-23T23:24:33.290Z,19.27
2022-10-23T23:27:01.282Z,20.80
2022-10-23T23:29:29.757Z,16.10
2022-10-23T23:31:57.835Z,18.35
2022-10-23T23:34:25.886Z,22.20
2022-10-23T23:36:53.868Z,24.90
2022-10-23T23:39:21.925Z,21.80
2022-10-23T23:41:51.394Z,21.35
2022-10-23T23:44:19.409Z,25.02
2022-10-23T23:46:47.434Z,23.80
2022-10-23T23:49:15.554Z,19.45
2022-10-23T23:51:43.564Z,24.90
2022-10-23T23:54:11.558Z,23.27
2022-10-23T23:56:39.731Z,27.40
2022-10-23T23:59:09.121Z,22.88
